sensor_id;sensor_type;location;lat;lon;timestamp;P1;durP1;ratioP1;P2;durP2;ratioP2
56631;SDS011;42503;39.928;-75.152;2023-06-22T00:04:57;17.20;;;3.00;;
56631;SDS011;42503;39.928;-75.152;2023-06-22T00:14:58;10.85;;;2.17;;
56631;SDS011;42503;39.928;-75.152;2023-06-22T00:25:00;8.10;;;1.92;;
56631;SDS011;42503;39.928;-75.152;2023-06-22T00:35:01;6.82;;;1.70;;
56631;SDS011;42503;39.928;-75.152;2023-06-22T00:45:06;4.93;;;1.60;;
56631;SDS011;42503;39.928;-75.152;2023-06-22T00:55:08;4.03;;;1.63;;
56631;SDS011;42503;39.928;-75.152;2023-06-22T01:05:13;5.53;;;1.73;;
56631;SDS011;42503;39.928;-75.152;2023-06-22T01:15:18;5.45;;;1.75;;
56631;SDS011;42503;39.928;-75.152;2023-06-22T01:25:31;4.93;;;1.40;;
56631;SDS011;42503;39.928;-75.152;2023-06-22T01:35:44;7.00;;;2.00;;
56631;SDS011;42503;39.928;-75.152;2023-06-22T01:45:46;8.13;;;1.92;;
56631;SDS011;42503;39.928;-75.152;2023-06-22T01:55:47;7.72;;;2.40;;
56631;SDS011;42503;39.928;-75.152;2023-06-22T02:05:50;3.83;;;1.58;;
56631;SDS011;42503;39.928;-75.152;2023-06-22T02:15:56;18.15;;;2.90;;
56631;SDS011;42503;39.928;-75.152;2023-06-22T02:25:57;13.75;;;2.22;;
56631;SDS011;42503;39.928;-75.152;2023-06-22T02:35:59;13.00;;;2.58;;
56631;SDS011;42503;39.928;-75.152;2023-06-22T02:46:00;5.50;;;2.17;;
56631;SDS011;42503;39.928;-75.152;2023-06-22T02:56:02;8.40;;;2.08;;
56631;SDS011;42503;39.928;-75.152;2023-06-22T03:06:06;8.57;;;1.98;;
56631;SDS011;42503;39.928;-75.152;2023-06-22T03:16:07;7.68;;;2.10;;
56631;SDS011;42503;39.928;-75.152;2023-06-22T03:26:09;5.32;;;2.10;;
56631;SDS011;42503;39.928;-75.152;2023-06-22T03:36:11;9.85;;;1.77;;
56631;SDS011;42503;39.928;-75.152;2023-06-22T03:46:12;6.70;;;1.77;;
56631;SDS011;42503;39.928;-75.152;2023-06-22T03:56:14;4.82;;;1.90;;
56631;SDS011;42503;39.928;-75.152;2023-06-22T04:06:20;6.77;;;1.90;;
56631;SDS011;42503;39.928;-75.152;2023-06-22T04:16:23;5.43;;;1.92;;
56631;SDS011;42503;39.928;-75.152;2023-06-22T04:26:24;6.90;;;1.73;;
56631;SDS011;42503;39.928;-75.152;2023-06-22T04:36:26;6.72;;;1.98;;
56631;SDS011;42503;39.928;-75.152;2023-06-22T04:46:31;5.90;;;1.77;;
56631;SDS011;42503;39.928;-75.152;2023-06-22T04:56:34;3.53;;;1.63;;
56631;SDS011;42503;39.928;-75.152;2023-06-22T05:06:36;4.50;;;2.10;;
56631;SDS011;42503;39.928;-75.152;2023-06-22T05:16:37;5.45;;;2.28;;
56631;SDS011;42503;39.928;-75.152;2023-06-22T05:26:39;7.38;;;2.00;;
56631;SDS011;42503;39.928;-75.152;2023-06-22T05:36:44;6.40;;;2.55;;
56631;SDS011;42503;39.928;-75.152;2023-06-22T05:46:45;5.97;;;1.98;;
56631;SDS011;42503;39.928;-75.152;2023-06-22T05:56:48;4.65;;;2.45;;
56631;SDS011;42503;39.928;-75.152;2023-06-22T06:06:50;5.80;;;2.30;;
56631;SDS011;42503;39.928;-75.152;2023-06-22T06:16:51;5.95;;;1.95;;
56631;SDS011;42503;39.928;-75.152;2023-06-22T06:26:52;4.75;;;1.90;;
56631;SDS011;42503;39.928;-75.152;2023-06-22T06:36:56;4.15;;;1.95;;
56631;SDS011;42503;39.928;-75.152;2023-06-22T06:46:58;5.80;;;2.40;;
56631;SDS011;42503;39.928;-75.152;2023-06-22T06:56:59;3.58;;;2.13;;
56631;SDS011;42503;39.928;-75.152;2023-06-22T07:07:01;5.03;;;2.35;;
56631;SDS011;42503;39.928;-75.152;2023-06-22T07:17:03;6.25;;;2.85;;
56631;SDS011;42503;39.928;-75.152;2023-06-22T07:27:07;5.63;;;2.22;;
56631;SDS011;42503;39.928;-75.152;2023-06-22T07:37:08;3.63;;;1.85;;
56631;SDS011;42503;39.928;-75.152;2023-06-22T07:47:10;4.53;;;1.85;;
56631;SDS011;42503;39.928;-75.152;2023-06-22T07:57:11;4.47;;;2.25;;
56631;SDS011;42503;39.928;-75.152;2023-06-22T08:07:13;2.63;;;1.75;;
56631;SDS011;42503;39.928;-75.152;2023-06-22T08:17:19;3.17;;;1.80;;
56631;SDS011;42503;39.928;-75.152;2023-06-22T08:27:20;2.33;;;1.65;;
56631;SDS011;42503;39.928;-75.152;2023-06-22T08:37:24;1.92;;;1.50;;
56631;SDS011;42503;39.928;-75.152;2023-06-22T08:47:31;2.93;;;2.03;;
56631;SDS011;42503;39.928;-75.152;2023-06-22T08:57:32;2.97;;;1.60;;
56631;SDS011;42503;39.928;-75.152;2023-06-22T09:07:34;2.22;;;1.80;;
56631;SDS011;42503;39.928;-75.152;2023-06-22T09:17:35;3.50;;;2.03;;
56631;SDS011;42503;39.928;-75.152;2023-06-22T09:27:37;3.72;;;1.67;;
56631;SDS011;42503;39.928;-75.152;2023-06-22T09:37:39;2.38;;;1.60;;
56631;SDS011;42503;39.928;-75.152;2023-06-22T09:47:41;1.92;;;1.17;;
56631;SDS011;42503;39.928;-75.152;2023-06-22T09:57:43;6.25;;;1.67;;
56631;SDS011;42503;39.928;-75.152;2023-06-22T10:07:44;2.13;;;1.70;;
56631;SDS011;42503;39.928;-75.152;2023-06-22T10:17:48;2.65;;;1.25;;
56631;SDS011;42503;39.928;-75.152;2023-06-22T10:27:52;1.60;;;1.17;;
56631;SDS011;42503;39.928;-75.152;2023-06-22T10:37:56;2.22;;;1.10;;
56631;SDS011;42503;39.928;-75.152;2023-06-22T10:48:00;3.10;;;1.50;;
56631;SDS011;42503;39.928;-75.152;2023-06-22T10:58:01;2.30;;;1.27;;
56631;SDS011;42503;39.928;-75.152;2023-06-22T11:08:03;1.73;;;1.00;;
56631;SDS011;42503;39.928;-75.152;2023-06-22T11:18:04;1.70;;;1.20;;
56631;SDS011;42503;39.928;-75.152;2023-06-22T11:28:07;4.78;;;1.17;;
56631;SDS011;42503;39.928;-75.152;2023-06-22T11:38:09;4.18;;;1.52;;
56631;SDS011;42503;39.928;-75.152;2023-06-22T11:48:10;2.30;;;1.10;;
56631;SDS011;42503;39.928;-75.152;2023-06-22T11:58:12;3.92;;;1.00;;
56631;SDS011;42503;39.928;-75.152;2023-06-22T12:08:13;5.22;;;1.38;;
56631;SDS011;42503;39.928;-75.152;2023-06-22T12:18:14;5.10;;;1.63;;
56631;SDS011;42503;39.928;-75.152;2023-06-22T12:28:16;2.67;;;1.10;;
56631;SDS011;42503;39.928;-75.152;2023-06-22T12:38:20;5.55;;;1.40;;
56631;SDS011;42503;39.928;-75.152;2023-06-22T12:48:27;4.03;;;1.20;;
56631;SDS011;42503;39.928;-75.152;2023-06-22T12:58:28;2.80;;;1.15;;
56631;SDS011;42503;39.928;-75.152;2023-06-22T13:08:30;3.03;;;1.10;;
56631;SDS011;42503;39.928;-75.152;2023-06-22T13:18:31;1.83;;;1.20;;
56631;SDS011;42503;39.928;-75.152;2023-06-22T13:28:34;3.60;;;1.17;;
56631;SDS011;42503;39.928;-75.152;2023-06-22T13:38:38;2.72;;;1.30;;
56631;SDS011;42503;39.928;-75.152;2023-06-22T13:48:39;4.82;;;1.52;;
56631;SDS011;42503;39.928;-75.152;2023-06-22T13:58:40;14.40;;;2.22;;
56631;SDS011;42503;39.928;-75.152;2023-06-22T14:08:43;7.55;;;1.73;;
56631;SDS011;42503;39.928;-75.152;2023-06-22T14:18:45;13.50;;;2.40;;
56631;SDS011;42503;39.928;-75.152;2023-06-22T14:28:48;8.63;;;2.10;;
56631;SDS011;42503;39.928;-75.152;2023-06-22T14:38:52;22.52;;;2.35;;
56631;SDS011;42503;39.928;-75.152;2023-06-22T14:48:54;12.43;;;2.03;;
56631;SDS011;42503;39.928;-75.152;2023-06-22T14:58:55;13.15;;;2.70;;
56631;SDS011;42503;39.928;-75.152;2023-06-22T15:08:56;12.63;;;2.60;;
56631;SDS011;42503;39.928;-75.152;2023-06-22T15:18:59;10.93;;;2.40;;
56631;SDS011;42503;39.928;-75.152;2023-06-22T15:29:04;26.25;;;3.40;;
56631;SDS011;42503;39.928;-75.152;2023-06-22T15:39:05;18.33;;;3.08;;
56631;SDS011;42503;39.928;-75.152;2023-06-22T15:49:06;25.98;;;4.00;;
56631;SDS011;42503;39.928;-75.152;2023-06-22T15:59:10;21.48;;;3.40;;
56631;SDS011;42503;39.928;-75.152;2023-06-22T16:09:15;24.95;;;4.00;;
56631;SDS011;42503;39.928;-75.152;2023-06-22T16:19:16;10.18;;;2.42;;
56631;SDS011;42503;39.928;-75.152;2023-06-22T16:29:17;12.80;;;2.85;;
56631;SDS011;42503;39.928;-75.152;2023-06-22T16:39:19;37.17;;;3.63;;
56631;SDS011;42503;39.928;-75.152;2023-06-22T16:49:21;11.73;;;2.55;;
56631;SDS011;42503;39.928;-75.152;2023-06-22T16:59:22;15.25;;;3.15;;
56631;SDS011;42503;39.928;-75.152;2023-06-22T17:09:26;6.18;;;1.98;;
56631;SDS011;42503;39.928;-75.152;2023-06-22T17:19:31;5.65;;;2.10;;
56631;SDS011;42503;39.928;-75.152;2023-06-22T17:29:32;6.88;;;2.47;;
56631;SDS011;42503;39.928;-75.152;2023-06-22T17:39:35;5.10;;;2.53;;
56631;SDS011;42503;39.928;-75.152;2023-06-22T17:49:37;10.50;;;2.85;;
56631;SDS011;42503;39.928;-75.152;2023-06-22T17:59:39;19.25;;;3.58;;
56631;SDS011;42503;39.928;-75.152;2023-06-22T18:09:41;14.43;;;3.65;;
56631;SDS011;42503;39.928;-75.152;2023-06-22T18:19:42;21.33;;;3.95;;
56631;SDS011;42503;39.928;-75.152;2023-06-22T18:29:47;16.70;;;3.55;;
56631;SDS011;42503;39.928;-75.152;2023-06-22T18:39:52;14.52;;;3.03;;
56631;SDS011;42503;39.928;-75.152;2023-06-22T18:50:05;15.70;;;3.95;;
56631;SDS011;42503;39.928;-75.152;2023-06-22T19:00:08;16.88;;;4.03;;
56631;SDS011;42503;39.928;-75.152;2023-06-22T19:31:08;19.05;;;4.50;;
56631;SDS011;42503;39.928;-75.152;2023-06-22T19:41:11;13.80;;;3.50;;
56631;SDS011;42503;39.928;-75.152;2023-06-22T19:51:12;16.10;;;3.17;;
56631;SDS011;42503;39.928;-75.152;2023-06-22T20:01:17;13.15;;;5.78;;
56631;SDS011;42503;39.928;-75.152;2023-06-22T20:11:25;34.10;;;7.28;;
56631;SDS011;42503;39.928;-75.152;2023-06-22T20:21:31;23.98;;;5.38;;
56631;SDS011;42503;39.928;-75.152;2023-06-22T20:31:33;13.18;;;3.97;;
56631;SDS011;42503;39.928;-75.152;2023-06-22T20:41:36;18.10;;;4.28;;
56631;SDS011;42503;39.928;-75.152;2023-06-22T20:51:37;21.13;;;4.25;;
56631;SDS011;42503;39.928;-75.152;2023-06-22T21:01:41;56.58;;;7.00;;
56631;SDS011;42503;39.928;-75.152;2023-06-22T21:11:46;43.92;;;6.63;;
56631;SDS011;42503;39.928;-75.152;2023-06-22T21:21:48;35.80;;;6.15;;
56631;SDS011;42503;39.928;-75.152;2023-06-22T21:31:52;42.22;;;5.78;;
56631;SDS011;42503;39.928;-75.152;2023-06-22T21:41:53;18.13;;;3.75;;
56631;SDS011;42503;39.928;-75.152;2023-06-22T21:51:55;16.40;;;4.10;;
56631;SDS011;42503;39.928;-75.152;2023-06-22T22:01:56;11.35;;;3.35;;
56631;SDS011;42503;39.928;-75.152;2023-06-22T22:12:00;12.50;;;3.75;;
56631;SDS011;42503;39.928;-75.152;2023-06-22T22:22:01;23.23;;;4.35;;
56631;SDS011;42503;39.928;-75.152;2023-06-22T22:32:04;468.80;;;51.40;;
56631;SDS011;42503;39.928;-75.152;2023-06-22T22:42:06;440.02;;;51.28;;
56631;SDS011;42503;39.928;-75.152;2023-06-22T22:52:08;361.95;;;44.60;;
56631;SDS011;42503;39.928;-75.152;2023-06-22T23:02:10;300.30;;;39.22;;
56631;SDS011;42503;39.928;-75.152;2023-06-22T23:12:11;257.95;;;31.85;;
56631;SDS011;42503;39.928;-75.152;2023-06-22T23:22:12;200.65;;;28.63;;
56631;SDS011;42503;39.928;-75.152;2023-06-22T23:32:17;189.95;;;27.63;;
56631;SDS011;42503;39.928;-75.152;2023-06-22T23:42:18;132.70;;;20.65;;
56631;SDS011;42503;39.928;-75.152;2023-06-22T23:52:19;123.90;;;20.13;;
